sensor_id;sensor_type;location;lat;lon;timestamp;temperature;humidity
53264;DHT22;39153;52.680;6.172;2022-11-12T00:00:02;6.90;99.90
53264;DHT22;39153;52.680;6.172;2022-11-12T00:02:28;6.40;99.90
53264;DHT22;39153;52.680;6.172;2022-11-12T00:04:53;6.70;99.90
53264;DHT22;39153;52.680;6.172;2022-11-12T00:07:19;7.20;99.90
53264;DHT22;39153;52.680;6.172;2022-11-12T00:09:45;6.70;99.90
53264;DHT22;39153;52.680;6.172;2022-11-12T00:12:10;6.50;99.90
53264;DHT22;39153;52.680;6.172;2022-11-12T00:14:36;7.10;99.90
53264;DHT22;39153;52.680;6.172;2022-11-12T00:17:01;6.90;99.90
53264;DHT22;39153;52.680;6.172;2022-11-12T00:19:27;6.60;99.90
53264;DHT22;39153;52.680;6.172;2022-11-12T00:21:53;6.60;99.90
53264;DHT22;39153;52.680;6.172;2022-11-12T00:24:18;6.90;99.90
53264;DHT22;39153;52.680;6.172;2022-11-12T00:26:44;6.70;99.90
53264;DHT22;39153;52.680;6.172;2022-11-12T00:29:10;6.70;99.90
53264;DHT22;39153;52.680;6.172;2022-11-12T00:31:35;7.10;99.90
53264;DHT22;39153;52.680;6.172;2022-11-12T00:34:01;6.70;99.90
53264;DHT22;39153;52.680;6.172;2022-11-12T00:36:27;6.50;99.90
53264;DHT22;39153;52.680;6.172;2022-11-12T00:38:53;6.80;99.90
53264;DHT22;39153;52.680;6.172;2022-11-12T00:41:19;6.80;99.90
53264;DHT22;39153;52.680;6.172;2022-11-12T00:43:44;6.20;99.90
53264;DHT22;39153;52.680;6.172;2022-11-12T00:46:10;6.60;99.90
53264;DHT22;39153;52.680;6.172;2022-11-12T00:48:36;6.50;99.90
53264;DHT22;39153;52.680;6.172;2022-11-12T00:51:03;6.70;99.90
53264;DHT22;39153;52.680;6.172;2022-11-12T00:53:29;6.50;99.90
53264;DHT22;39153;52.680;6.172;2022-11-12T00:56:03;6.40;99.90
53264;DHT22;39153;52.680;6.172;2022-11-12T00:58:31;6.50;99.90
53264;DHT22;39153;52.680;6.172;2022-11-12T01:00:57;6.30;99.90
53264;DHT22;39153;52.680;6.172;2022-11-12T01:03:23;6.40;99.90
53264;DHT22;39153;52.680;6.172;2022-11-12T01:05:49;6.50;99.90
53264;DHT22;39153;52.680;6.172;2022-11-12T01:08:14;6.60;99.90
53264;DHT22;39153;52.680;6.172;2022-11-12T01:10:40;6.90;99.90
53264;DHT22;39153;52.680;6.172;2022-11-12T01:13:06;6.50;99.90
53264;DHT22;39153;52.680;6.172;2022-11-12T01:15:31;6.60;99.90
53264;DHT22;39153;52.680;6.172;2022-11-12T01:17:57;6.40;99.90
53264;DHT22;39153;52.680;6.172;2022-11-12T01:20:23;6.90;99.90
53264;DHT22;39153;52.680;6.172;2022-11-12T01:22:48;6.40;99.90
53264;DHT22;39153;52.680;6.172;2022-11-12T01:25:14;7.00;99.90
53264;DHT22;39153;52.680;6.172;2022-11-12T01:27:40;6.40;99.90
53264;DHT22;39153;52.680;6.172;2022-11-12T01:30:06;6.40;99.90
53264;DHT22;39153;52.680;6.172;2022-11-12T01:32:35;6.00;99.90
53264;DHT22;39153;52.680;6.172;2022-11-12T01:35:01;6.30;99.90
53264;DHT22;39153;52.680;6.172;2022-11-12T01:37:27;6.30;99.90
53264;DHT22;39153;52.680;6.172;2022-11-12T01:39:53;6.50;99.90
53264;DHT22;39153;52.680;6.172;2022-11-12T01:42:18;6.30;99.90
53264;DHT22;39153;52.680;6.172;2022-11-12T01:44:44;6.20;99.90
53264;DHT22;39153;52.680;6.172;2022-11-12T01:47:24;6.30;99.90
53264;DHT22;39153;52.680;6.172;2022-11-12T01:50:16;6.40;99.90
53264;DHT22;39153;52.680;6.172;2022-11-12T01:53:00;6.40;99.90
53264;DHT22;39153;52.680;6.172;2022-11-12T01:55:30;6.10;99.90
53264;DHT22;39153;52.680;6.172;2022-11-12T01:58:23;6.40;99.90
53264;DHT22;39153;52.680;6.172;2022-11-12T02:00:50;6.70;99.90
53264;DHT22;39153;52.680;6.172;2022-11-12T02:03:22;7.20;99.90
53264;DHT22;39153;52.680;6.172;2022-11-12T02:05:52;6.30;99.90
53264;DHT22;39153;52.680;6.172;2022-11-12T02:08:21;6.60;99.90
53264;DHT22;39153;52.680;6.172;2022-11-12T02:10:47;6.40;99.90
53264;DHT22;39153;52.680;6.172;2022-11-12T02:13:12;6.50;99.90
53264;DHT22;39153;52.680;6.172;2022-11-12T02:15:57;6.00;99.90
53264;DHT22;39153;52.680;6.172;2022-11-12T02:18:23;6.20;99.90
53264;DHT22;39153;52.680;6.172;2022-11-12T02:20:53;6.40;99.90
53264;DHT22;39153;52.680;6.172;2022-11-12T02:23:20;6.40;99.90
53264;DHT22;39153;52.680;6.172;2022-11-12T02:25:45;7.00;99.90
53264;DHT22;39153;52.680;6.172;2022-11-12T02:28:11;6.90;99.90
53264;DHT22;39153;52.680;6.172;2022-11-12T02:33:03;6.40;99.90
53264;DHT22;39153;52.680;6.172;2022-11-12T02:35:29;6.70;99.90
53264;DHT22;39153;52.680;6.172;2022-11-12T02:37:54;6.50;99.90
53264;DHT22;39153;52.680;6.172;2022-11-12T02:40:21;6.80;99.90
53264;DHT22;39153;52.680;6.172;2022-11-12T02:42:46;6.20;99.90
53264;DHT22;39153;52.680;6.172;2022-11-12T02:45:12;6.50;99.90
53264;DHT22;39153;52.680;6.172;2022-11-12T02:47:38;6.40;99.90
53264;DHT22;39153;52.680;6.172;2022-11-12T02:50:04;6.60;99.90
53264;DHT22;39153;52.680;6.172;2022-11-12T02:52:30;6.20;99.90
53264;DHT22;39153;52.680;6.172;2022-11-12T02:54:57;6.50;99.90
53264;DHT22;39153;52.680;6.172;2022-11-12T02:57:23;6.70;99.90
53264;DHT22;39153;52.680;6.172;2022-11-12T02:59:48;6.50;99.90
53264;DHT22;39153;52.680;6.172;2022-11-12T03:02:14;6.20;99.90
53264;DHT22;39153;52.680;6.172;2022-11-12T03:04:40;6.40;99.90
53264;DHT22;39153;52.680;6.172;2022-11-12T03:07:05;6.10;99.90
53264;DHT22;39153;52.680;6.172;2022-11-12T03:09:31;6.10;99.90
53264;DHT22;39153;52.680;6.172;2022-11-12T03:11:57;5.90;99.90
53264;DHT22;39153;52.680;6.172;2022-11-12T03:14:22;6.20;99.90
53264;DHT22;39153;52.680;6.172;2022-11-12T03:16:48;6.20;99.90
53264;DHT22;39153;52.680;6.172;2022-11-12T03:19:14;6.40;99.90
53264;DHT22;39153;52.680;6.172;2022-11-12T03:21:39;5.70;99.90
53264;DHT22;39153;52.680;6.172;2022-11-12T03:24:05;6.20;99.90
53264;DHT22;39153;52.680;6.172;2022-11-12T03:26:31;5.50;99.90
53264;DHT22;39153;52.680;6.172;2022-11-12T03:28:57;5.60;99.90
53264;DHT22;39153;52.680;6.172;2022-11-12T03:31:22;6.10;99.90
53264;DHT22;39153;52.680;6.172;2022-11-12T03:33:48;5.80;99.90
53264;DHT22;39153;52.680;6.172;2022-11-12T03:36:14;6.00;99.90
53264;DHT22;39153;52.680;6.172;2022-11-12T03:38:39;6.20;99.90
53264;DHT22;39153;52.680;6.172;2022-11-12T03:41:05;6.30;99.90
53264;DHT22;39153;52.680;6.172;2022-11-12T03:43:31;6.00;99.90
53264;DHT22;39153;52.680;6.172;2022-11-12T03:45:56;5.80;99.90
53264;DHT22;39153;52.680;6.172;2022-11-12T03:48:22;5.80;99.90
53264;DHT22;39153;52.680;6.172;2022-11-12T03:50:48;6.10;99.90
53264;DHT22;39153;52.680;6.172;2022-11-12T03:53:13;6.10;99.90
53264;DHT22;39153;52.680;6.172;2022-11-12T03:55:39;6.30;99.90
53264;DHT22;39153;52.680;6.172;2022-11-12T03:58:05;5.80;99.90
53264;DHT22;39153;52.680;6.172;2022-11-12T04:00:31;6.20;99.90
53264;DHT22;39153;52.680;6.172;2022-11-12T04:02:57;5.70;99.90
53264;DHT22;39153;52.680;6.172;2022-11-12T04:05:23;6.10;99.90
53264;DHT22;39153;52.680;6.172;2022-11-12T04:08:15;5.40;99.90
53264;DHT22;39153;52.680;6.172;2022-11-12T04:11:04;5.70;99.90
53264;DHT22;39153;52.680;6.172;2022-11-12T04:13:30;5.50;99.90
53264;DHT22;39153;52.680;6.172;2022-11-12T04:18:46;5.30;99.90
53264;DHT22;39153;52.680;6.172;2022-11-12T04:21:40;5.40;99.90
53264;DHT22;39153;52.680;6.172;2022-11-12T04:24:32;5.50;99.90
53264;DHT22;39153;52.680;6.172;2022-11-12T04:27:28;5.30;99.90
53264;DHT22;39153;52.680;6.172;2022-11-12T04:29:54;4.90;99.90
53264;DHT22;39153;52.680;6.172;2022-11-12T04:32:48;5.50;99.90
53264;DHT22;39153;52.680;6.172;2022-11-12T04:35:14;5.40;99.90
53264;DHT22;39153;52.680;6.172;2022-11-12T04:37:40;5.20;99.90
53264;DHT22;39153;52.680;6.172;2022-11-12T04:40:20;5.90;99.90
53264;DHT22;39153;52.680;6.172;2022-11-12T04:43:07;4.70;99.90
53264;DHT22;39153;52.680;6.172;2022-11-12T04:45:53;5.30;99.90
53264;DHT22;39153;52.680;6.172;2022-11-12T04:48:20;5.30;99.90
53264;DHT22;39153;52.680;6.172;2022-11-12T04:50:50;4.70;99.90
53264;DHT22;39153;52.680;6.172;2022-11-12T04:53:17;4.70;99.90
53264;DHT22;39153;52.680;6.172;2022-11-12T04:55:43;4.90;99.90
53264;DHT22;39153;52.680;6.172;2022-11-12T04:58:08;4.80;99.90
53264;DHT22;39153;52.680;6.172;2022-11-12T05:00:34;5.40;99.90
53264;DHT22;39153;52.680;6.172;2022-11-12T05:03:00;4.80;99.90
53264;DHT22;39153;52.680;6.172;2022-11-12T05:05:25;5.20;99.90
53264;DHT22;39153;52.680;6.172;2022-11-12T05:07:51;5.00;99.90
53264;DHT22;39153;52.680;6.172;2022-11-12T05:10:17;5.10;99.90
53264;DHT22;39153;52.680;6.172;2022-11-12T05:12:43;5.30;99.90
53264;DHT22;39153;52.680;6.172;2022-11-12T05:15:09;5.00;99.90
53264;DHT22;39153;52.680;6.172;2022-11-12T05:17:40;4.70;99.90
53264;DHT22;39153;52.680;6.172;2022-11-12T05:20:06;4.90;99.90
53264;DHT22;39153;52.680;6.172;2022-11-12T05:22:32;4.50;99.90
53264;DHT22;39153;52.680;6.172;2022-11-12T05:24:58;4.80;99.90
53264;DHT22;39153;52.680;6.172;2022-11-12T05:27:24;4.70;99.90
53264;DHT22;39153;52.680;6.172;2022-11-12T05:29:49;4.60;99.90
53264;DHT22;39153;52.680;6.172;2022-11-12T05:32:15;5.50;99.90
53264;DHT22;39153;52.680;6.172;2022-11-12T05:34:43;5.10;99.90
53264;DHT22;39153;52.680;6.172;2022-11-12T05:37:10;4.60;99.90
53264;DHT22;39153;52.680;6.172;2022-11-12T05:39:37;4.80;99.90
53264;DHT22;39153;52.680;6.172;2022-11-12T05:42:03;4.80;99.90
53264;DHT22;39153;52.680;6.172;2022-11-12T05:44:28;4.60;99.90
53264;DHT22;39153;52.680;6.172;2022-11-12T05:46:54;4.90;99.90
53264;DHT22;39153;52.680;6.172;2022-11-12T05:49:20;5.30;99.90
53264;DHT22;39153;52.680;6.172;2022-11-12T05:51:46;5.00;99.90
53264;DHT22;39153;52.680;6.172;2022-11-12T05:54:11;4.80;99.90
53264;DHT22;39153;52.680;6.172;2022-11-12T05:56:37;4.90;99.90
53264;DHT22;39153;52.680;6.172;2022-11-12T05:59:05;4.50;99.90
53264;DHT22;39153;52.680;6.172;2022-11-12T06:01:31;4.70;99.90
53264;DHT22;39153;52.680;6.172;2022-11-12T06:03:57;4.60;99.90
53264;DHT22;39153;52.680;6.172;2022-11-12T06:06:23;4.90;99.90
53264;DHT22;39153;52.680;6.172;2022-11-12T06:08:49;5.30;99.90
53264;DHT22;39153;52.680;6.172;2022-11-12T06:11:14;4.50;99.90
53264;DHT22;39153;52.680;6.172;2022-11-12T06:13:40;4.80;99.90
53264;DHT22;39153;52.680;6.172;2022-11-12T06:16:06;4.80;99.90
53264;DHT22;39153;52.680;6.172;2022-11-12T06:18:32;4.70;99.90
53264;DHT22;39153;52.680;6.172;2022-11-12T06:21:05;4.70;99.90
53264;DHT22;39153;52.680;6.172;2022-11-12T06:23:44;4.70;99.90
53264;DHT22;39153;52.680;6.172;2022-11-12T06:26:10;4.60;99.90
53264;DHT22;39153;52.680;6.172;2022-11-12T06:28:35;4.50;99.90
53264;DHT22;39153;52.680;6.172;2022-11-12T06:31:01;4.60;99.90
53264;DHT22;39153;52.680;6.172;2022-11-12T06:33:26;4.50;99.90
53264;DHT22;39153;52.680;6.172;2022-11-12T06:35:59;4.50;99.90
53264;DHT22;39153;52.680;6.172;2022-11-12T06:38:32;4.70;99.90
53264;DHT22;39153;52.680;6.172;2022-11-12T06:40:58;4.60;99.90
53264;DHT22;39153;52.680;6.172;2022-11-12T06:43:25;4.50;99.90
53264;DHT22;39153;52.680;6.172;2022-11-12T06:45:51;4.30;99.90
53264;DHT22;39153;52.680;6.172;2022-11-12T06:48:17;4.00;99.90
53264;DHT22;39153;52.680;6.172;2022-11-12T06:50:43;4.50;99.90
53264;DHT22;39153;52.680;6.172;2022-11-12T06:53:08;4.40;99.90
53264;DHT22;39153;52.680;6.172;2022-11-12T06:55:34;4.40;99.90
53264;DHT22;39153;52.680;6.172;2022-11-12T06:58:00;4.30;99.90
53264;DHT22;39153;52.680;6.172;2022-11-12T07:00:26;4.70;99.90
53264;DHT22;39153;52.680;6.172;2022-11-12T07:02:52;4.00;99.90
53264;DHT22;39153;52.680;6.172;2022-11-12T07:05:17;4.40;99.90
53264;DHT22;39153;52.680;6.172;2022-11-12T07:07:43;3.90;99.90
53264;DHT22;39153;52.680;6.172;2022-11-12T07:10:09;4.60;99.90
53264;DHT22;39153;52.680;6.172;2022-11-12T07:12:34;4.40;99.90
53264;DHT22;39153;52.680;6.172;2022-11-12T07:15:00;4.60;99.90
53264;DHT22;39153;52.680;6.172;2022-11-12T07:17:26;3.90;99.90
53264;DHT22;39153;52.680;6.172;2022-11-12T07:19:52;4.30;99.90
53264;DHT22;39153;52.680;6.172;2022-11-12T07:22:18;4.40;99.90
53264;DHT22;39153;52.680;6.172;2022-11-12T07:24:43;4.40;99.90
53264;DHT22;39153;52.680;6.172;2022-11-12T07:27:09;4.70;99.90
53264;DHT22;39153;52.680;6.172;2022-11-12T07:29:35;4.40;99.90
53264;DHT22;39153;52.680;6.172;2022-11-12T07:32:00;4.10;99.90
53264;DHT22;39153;52.680;6.172;2022-11-12T07:34:26;4.40;99.90
53264;DHT22;39153;52.680;6.172;2022-11-12T07:36:51;4.20;99.90
53264;DHT22;39153;52.680;6.172;2022-11-12T07:39:17;4.00;99.90
53264;DHT22;39153;52.680;6.172;2022-11-12T07:41:43;4.40;99.90
53264;DHT22;39153;52.680;6.172;2022-11-12T07:44:09;4.00;99.90
53264;DHT22;39153;52.680;6.172;2022-11-12T07:46:35;4.00;99.90
53264;DHT22;39153;52.680;6.172;2022-11-12T07:49:01;3.90;99.90
53264;DHT22;39153;52.680;6.172;2022-11-12T07:51:28;3.90;99.90
53264;DHT22;39153;52.680;6.172;2022-11-12T07:53:55;4.20;99.90
53264;DHT22;39153;52.680;6.172;2022-11-12T07:56:23;4.20;99.90
53264;DHT22;39153;52.680;6.172;2022-11-12T07:58:49;3.90;99.90
53264;DHT22;39153;52.680;6.172;2022-11-12T08:01:31;4.30;99.90
53264;DHT22;39153;52.680;6.172;2022-11-12T08:03:58;4.10;99.90
53264;DHT22;39153;52.680;6.172;2022-11-12T08:06:24;4.10;99.90
53264;DHT22;39153;52.680;6.172;2022-11-12T08:08:53;4.10;99.90
53264;DHT22;39153;52.680;6.172;2022-11-12T08:11:20;4.60;99.90
53264;DHT22;39153;52.680;6.172;2022-11-12T08:13:45;4.50;99.90
53264;DHT22;39153;52.680;6.172;2022-11-12T08:16:11;4.30;99.90
53264;DHT22;39153;52.680;6.172;2022-11-12T08:18:37;4.30;99.90
53264;DHT22;39153;52.680;6.172;2022-11-12T08:21:04;4.40;99.90
53264;DHT22;39153;52.680;6.172;2022-11-12T08:23:30;4.60;99.90
53264;DHT22;39153;52.680;6.172;2022-11-12T08:25:59;4.40;99.90
53264;DHT22;39153;52.680;6.172;2022-11-12T08:28:27;4.30;99.90
53264;DHT22;39153;52.680;6.172;2022-11-12T08:30:53;4.10;99.90
53264;DHT22;39153;52.680;6.172;2022-11-12T08:33:18;4.30;99.90
53264;DHT22;39153;52.680;6.172;2022-11-12T08:35:44;4.50;99.90
53264;DHT22;39153;52.680;6.172;2022-11-12T08:38:10;5.30;99.90
53264;DHT22;39153;52.680;6.172;2022-11-12T08:40:37;4.90;99.90
53264;DHT22;39153;52.680;6.172;2022-11-12T08:43:05;5.00;99.90
53264;DHT22;39153;52.680;6.172;2022-11-12T08:45:33;5.20;99.90
53264;DHT22;39153;52.680;6.172;2022-11-12T08:48:01;4.80;99.90
53264;DHT22;39153;52.680;6.172;2022-11-12T08:50:27;4.90;99.90
53264;DHT22;39153;52.680;6.172;2022-11-12T08:52:53;5.30;99.90
53264;DHT22;39153;52.680;6.172;2022-11-12T08:55:23;5.20;99.90
53264;DHT22;39153;52.680;6.172;2022-11-12T08:57:48;5.40;99.90
53264;DHT22;39153;52.680;6.172;2022-11-12T09:00:14;5.40;99.90
53264;DHT22;39153;52.680;6.172;2022-11-12T09:02:40;6.00;99.90
53264;DHT22;39153;52.680;6.172;2022-11-12T09:05:06;6.30;99.90
53264;DHT22;39153;52.680;6.172;2022-11-12T09:07:32;6.20;99.90
53264;DHT22;39153;52.680;6.172;2022-11-12T09:09:57;6.70;99.90
53264;DHT22;39153;52.680;6.172;2022-11-12T09:12:23;6.20;99.90
53264;DHT22;39153;52.680;6.172;2022-11-12T09:14:49;6.70;99.90
53264;DHT22;39153;52.680;6.172;2022-11-12T09:17:15;7.20;99.90
53264;DHT22;39153;52.680;6.172;2022-11-12T09:19:40;6.50;99.90
53264;DHT22;39153;52.680;6.172;2022-11-12T09:22:07;7.00;99.90
53264;DHT22;39153;52.680;6.172;2022-11-12T09:24:32;7.10;99.90
53264;DHT22;39153;52.680;6.172;2022-11-12T09:26:58;6.60;99.90
53264;DHT22;39153;52.680;6.172;2022-11-12T09:29:23;7.20;99.90
53264;DHT22;39153;52.680;6.172;2022-11-12T09:31:49;7.30;99.90
53264;DHT22;39153;52.680;6.172;2022-11-12T09:34:15;7.50;99.90
53264;DHT22;39153;52.680;6.172;2022-11-12T09:36:41;7.40;99.90
53264;DHT22;39153;52.680;6.172;2022-11-12T09:39:07;7.90;99.90
53264;DHT22;39153;52.680;6.172;2022-11-12T09:41:39;7.60;99.90
53264;DHT22;39153;52.680;6.172;2022-11-12T09:44:10;7.50;99.90
53264;DHT22;39153;52.680;6.172;2022-11-12T09:49:11;8.20;99.90
53264;DHT22;39153;52.680;6.172;2022-11-12T09:51:45;8.00;99.90
53264;DHT22;39153;52.680;6.172;2022-11-12T09:54:27;7.70;99.90
53264;DHT22;39153;52.680;6.172;2022-11-12T09:56:54;8.10;99.90
53264;DHT22;39153;52.680;6.172;2022-11-12T09:59:22;8.00;99.90
53264;DHT22;39153;52.680;6.172;2022-11-12T10:10:14;9.30;99.90
53264;DHT22;39153;52.680;6.172;2022-11-12T10:15:42;10.00;99.90
53264;DHT22;39153;52.680;6.172;2022-11-12T10:23:48;10.50;99.90
53264;DHT22;39153;52.680;6.172;2022-11-12T10:26:18;10.90;99.90
53264;DHT22;39153;52.680;6.172;2022-11-12T10:31:22;10.90;99.90
53264;DHT22;39153;52.680;6.172;2022-11-12T10:33:47;11.30;99.90
53264;DHT22;39153;52.680;6.172;2022-11-12T10:36:26;11.40;99.90
53264;DHT22;39153;52.680;6.172;2022-11-12T10:38:54;11.60;99.90
53264;DHT22;39153;52.680;6.172;2022-11-12T10:41:23;11.50;99.90
53264;DHT22;39153;52.680;6.172;2022-11-12T10:44:04;11.40;99.90
53264;DHT22;39153;52.680;6.172;2022-11-12T10:46:35;11.30;99.90
53264;DHT22;39153;52.680;6.172;2022-11-12T10:49:20;11.10;99.90
53264;DHT22;39153;52.680;6.172;2022-11-12T10:51:57;11.10;99.90
53264;DHT22;39153;52.680;6.172;2022-11-12T10:56:52;10.80;99.90
53264;DHT22;39153;52.680;6.172;2022-11-12T10:59:22;10.80;99.90
53264;DHT22;39153;52.680;6.172;2022-11-12T11:01:57;11.10;99.90
53264;DHT22;39153;52.680;6.172;2022-11-12T11:04:36;11.60;99.90
53264;DHT22;39153;52.680;6.172;2022-11-12T11:09:55;12.10;99.90
53264;DHT22;39153;52.680;6.172;2022-11-12T11:12:29;12.50;99.90
53264;DHT22;39153;52.680;6.172;2022-11-12T11:15:06;12.70;99.90
53264;DHT22;39153;52.680;6.172;2022-11-12T11:17:33;13.10;99.90
53264;DHT22;39153;52.680;6.172;2022-11-12T11:19:59;13.10;99.90
53264;DHT22;39153;52.680;6.172;2022-11-12T11:22:41;13.30;99.90
53264;DHT22;39153;52.680;6.172;2022-11-12T11:25:24;13.50;99.90
53264;DHT22;39153;52.680;6.172;2022-11-12T11:31:24;13.60;99.90
53264;DHT22;39153;52.680;6.172;2022-11-12T11:35:03;13.60;99.90
53264;DHT22;39153;52.680;6.172;2022-11-12T11:45:52;13.80;99.90
53264;DHT22;39153;52.680;6.172;2022-11-12T11:56:41;14.10;99.90
53264;DHT22;39153;52.680;6.172;2022-11-12T11:59:14;14.10;99.90
53264;DHT22;39153;52.680;6.172;2022-11-12T12:21:11;14.70;99.90
53264;DHT22;39153;52.680;6.172;2022-11-12T12:23:45;15.00;99.90
53264;DHT22;39153;52.680;6.172;2022-11-12T12:26:15;14.60;99.90
53264;DHT22;39153;52.680;6.172;2022-11-12T12:31:17;15.00;99.90
53264;DHT22;39153;52.680;6.172;2022-11-12T12:36:38;15.40;99.90
53264;DHT22;39153;52.680;6.172;2022-11-12T12:39:06;15.60;99.90
53264;DHT22;39153;52.680;6.172;2022-11-12T12:44:20;15.70;99.90
53264;DHT22;39153;52.680;6.172;2022-11-12T12:46:56;15.80;99.90
53264;DHT22;39153;52.680;6.172;2022-11-12T12:49:31;15.90;99.90
53264;DHT22;39153;52.680;6.172;2022-11-12T12:51:58;15.90;99.90
53264;DHT22;39153;52.680;6.172;2022-11-12T12:57:03;16.10;99.90
53264;DHT22;39153;52.680;6.172;2022-11-12T12:59:29;16.30;99.90
53264;DHT22;39153;52.680;6.172;2022-11-12T13:02:00;16.40;99.90
53264;DHT22;39153;52.680;6.172;2022-11-12T13:04:52;16.50;99.90
53264;DHT22;39153;52.680;6.172;2022-11-12T13:07:37;16.60;99.90
53264;DHT22;39153;52.680;6.172;2022-11-12T13:15:54;16.70;99.90
53264;DHT22;39153;52.680;6.172;2022-11-12T13:21:15;16.60;99.90
53264;DHT22;39153;52.680;6.172;2022-11-12T13:23:59;16.50;99.90
53264;DHT22;39153;52.680;6.172;2022-11-12T13:26:51;16.30;99.90
53264;DHT22;39153;52.680;6.172;2022-11-12T13:37:43;15.30;99.90
53264;DHT22;39153;52.680;6.172;2022-11-12T13:40:14;15.20;99.90
53264;DHT22;39153;52.680;6.172;2022-11-12T13:42:40;15.00;99.90
53264;DHT22;39153;52.680;6.172;2022-11-12T13:45:12;14.90;99.90
53264;DHT22;39153;52.680;6.172;2022-11-12T13:47:39;14.90;99.90
53264;DHT22;39153;52.680;6.172;2022-11-12T13:50:07;15.00;99.90
53264;DHT22;39153;52.680;6.172;2022-11-12T13:52:34;14.90;99.90
53264;DHT22;39153;52.680;6.172;2022-11-12T13:55:05;14.80;99.90
53264;DHT22;39153;52.680;6.172;2022-11-12T13:57:31;14.70;99.90
53264;DHT22;39153;52.680;6.172;2022-11-12T14:02:44;14.40;99.90
53264;DHT22;39153;52.680;6.172;2022-11-12T14:05:19;14.30;99.90
53264;DHT22;39153;52.680;6.172;2022-11-12T14:08:26;14.20;99.90
53264;DHT22;39153;52.680;6.172;2022-11-12T14:14:05;14.10;99.90
53264;DHT22;39153;52.680;6.172;2022-11-12T14:16:46;14.00;99.90
53264;DHT22;39153;52.680;6.172;2022-11-12T14:19:17;14.00;99.90
53264;DHT22;39153;52.680;6.172;2022-11-12T14:22:20;13.90;99.90
53264;DHT22;39153;52.680;6.172;2022-11-12T14:24:50;14.00;99.90
53264;DHT22;39153;52.680;6.172;2022-11-12T14:30:09;13.80;99.90
53264;DHT22;39153;52.680;6.172;2022-11-12T14:32:39;13.80;99.90
53264;DHT22;39153;52.680;6.172;2022-11-12T14:35:25;13.70;99.90
53264;DHT22;39153;52.680;6.172;2022-11-12T14:46:06;13.60;99.90
53264;DHT22;39153;52.680;6.172;2022-11-12T14:48:54;13.60;99.90
53264;DHT22;39153;52.680;6.172;2022-11-12T14:51:21;13.50;99.90
53264;DHT22;39153;52.680;6.172;2022-11-12T14:53:59;13.50;99.90
53264;DHT22;39153;52.680;6.172;2022-11-12T14:56:36;13.50;99.90
53264;DHT22;39153;52.680;6.172;2022-11-12T14:59:04;13.40;99.90
53264;DHT22;39153;52.680;6.172;2022-11-12T15:01:33;13.30;99.90
53264;DHT22;39153;52.680;6.172;2022-11-12T15:04:25;13.30;99.90
53264;DHT22;39153;52.680;6.172;2022-11-12T15:06:53;13.30;99.90
53264;DHT22;39153;52.680;6.172;2022-11-12T15:09:35;13.20;99.90
53264;DHT22;39153;52.680;6.172;2022-11-12T15:12:04;13.20;99.90
53264;DHT22;39153;52.680;6.172;2022-11-12T15:14:30;13.10;99.90
53264;DHT22;39153;52.680;6.172;2022-11-12T15:16:56;13.20;99.90
53264;DHT22;39153;52.680;6.172;2022-11-12T15:19:24;13.10;99.90
53264;DHT22;39153;52.680;6.172;2022-11-12T15:21:53;13.10;99.90
53264;DHT22;39153;52.680;6.172;2022-11-12T15:24:33;13.00;99.90
53264;DHT22;39153;52.680;6.172;2022-11-12T15:27:47;13.00;99.90
53264;DHT22;39153;52.680;6.172;2022-11-12T15:29:47;12.90;99.90
53264;DHT22;39153;52.680;6.172;2022-11-12T15:39:34;12.70;99.90
53264;DHT22;39153;52.680;6.172;2022-11-12T15:42:05;12.70;99.90
53264;DHT22;39153;52.680;6.172;2022-11-12T15:44:37;12.70;99.90
53264;DHT22;39153;52.680;6.172;2022-11-12T15:47:03;12.60;99.90
53264;DHT22;39153;52.680;6.172;2022-11-12T15:49:29;12.50;99.90
53264;DHT22;39153;52.680;6.172;2022-11-12T15:51:55;12.50;99.90
53264;DHT22;39153;52.680;6.172;2022-11-12T15:54:20;12.40;99.90
53264;DHT22;39153;52.680;6.172;2022-11-12T15:56:46;12.40;99.90
53264;DHT22;39153;52.680;6.172;2022-11-12T15:59:16;12.30;99.90
53264;DHT22;39153;52.680;6.172;2022-11-12T16:01:43;12.30;99.90
53264;DHT22;39153;52.680;6.172;2022-11-12T16:04:10;12.20;99.90
53264;DHT22;39153;52.680;6.172;2022-11-12T16:06:36;12.20;99.90
53264;DHT22;39153;52.680;6.172;2022-11-12T16:09:02;12.10;99.90
53264;DHT22;39153;52.680;6.172;2022-11-12T16:11:28;12.10;99.90
53264;DHT22;39153;52.680;6.172;2022-11-12T16:14:01;12.00;99.90
53264;DHT22;39153;52.680;6.172;2022-11-12T16:16:27;12.00;99.90
53264;DHT22;39153;52.680;6.172;2022-11-12T16:18:53;12.00;99.90
53264;DHT22;39153;52.680;6.172;2022-11-12T16:21:18;11.90;99.90
53264;DHT22;39153;52.680;6.172;2022-11-12T16:23:44;11.80;99.90
53264;DHT22;39153;52.680;6.172;2022-11-12T16:26:14;11.80;99.90
53264;DHT22;39153;52.680;6.172;2022-11-12T16:28:42;11.70;99.90
53264;DHT22;39153;52.680;6.172;2022-11-12T16:31:08;11.70;99.90
53264;DHT22;39153;52.680;6.172;2022-11-12T16:33:33;11.60;99.90
53264;DHT22;39153;52.680;6.172;2022-11-12T16:35:59;11.60;99.90
53264;DHT22;39153;52.680;6.172;2022-11-12T16:38:25;11.50;99.90
53264;DHT22;39153;52.680;6.172;2022-11-12T16:40:50;11.50;99.90
53264;DHT22;39153;52.680;6.172;2022-11-12T16:43:16;11.40;99.90
53264;DHT22;39153;52.680;6.172;2022-11-12T16:45:42;11.40;99.90
53264;DHT22;39153;52.680;6.172;2022-11-12T16:48:16;11.40;99.90
53264;DHT22;39153;52.680;6.172;2022-11-12T16:50:42;11.30;99.90
53264;DHT22;39153;52.680;6.172;2022-11-12T16:53:08;11.20;99.90
53264;DHT22;39153;52.680;6.172;2022-11-12T16:55:33;11.30;99.90
53264;DHT22;39153;52.680;6.172;2022-11-12T16:57:59;11.20;99.90
53264;DHT22;39153;52.680;6.172;2022-11-12T17:00:25;11.20;99.90
53264;DHT22;39153;52.680;6.172;2022-11-12T17:02:52;11.20;99.90
53264;DHT22;39153;52.680;6.172;2022-11-12T17:05:22;11.10;99.90
53264;DHT22;39153;52.680;6.172;2022-11-12T17:07:49;11.00;99.90
53264;DHT22;39153;52.680;6.172;2022-11-12T17:10:18;11.00;99.90
53264;DHT22;39153;52.680;6.172;2022-11-12T17:12:49;11.00;99.90
53264;DHT22;39153;52.680;6.172;2022-11-12T17:15:15;11.00;99.90
53264;DHT22;39153;52.680;6.172;2022-11-12T17:17:41;10.90;99.90
53264;DHT22;39153;52.680;6.172;2022-11-12T17:20:07;10.90;99.90
53264;DHT22;39153;52.680;6.172;2022-11-12T17:22:33;10.80;99.90
53264;DHT22;39153;52.680;6.172;2022-11-12T17:24:59;10.80;99.90
53264;DHT22;39153;52.680;6.172;2022-11-12T17:27:25;10.80;99.90
53264;DHT22;39153;52.680;6.172;2022-11-12T17:29:51;10.80;99.90
53264;DHT22;39153;52.680;6.172;2022-11-12T17:32:17;10.80;99.90
53264;DHT22;39153;52.680;6.172;2022-11-12T17:34:43;10.90;99.90
53264;DHT22;39153;52.680;6.172;2022-11-12T17:37:08;10.70;99.90
53264;DHT22;39153;52.680;6.172;2022-11-12T17:39:34;10.70;99.90
53264;DHT22;39153;52.680;6.172;2022-11-12T17:42:00;10.60;99.90
53264;DHT22;39153;52.680;6.172;2022-11-12T17:44:25;10.70;99.90
53264;DHT22;39153;52.680;6.172;2022-11-12T17:46:51;10.60;99.90
53264;DHT22;39153;52.680;6.172;2022-11-12T17:49:17;10.60;99.90
53264;DHT22;39153;52.680;6.172;2022-11-12T17:51:43;10.60;99.90
53264;DHT22;39153;52.680;6.172;2022-11-12T17:54:09;10.50;99.90